sensor_id;sensor_type;location;lat;lon;timestamp;P1;durP1;ratioP1;P2;durP2;ratioP2
30635;SDS011;17400;52.392;9.750;2023-07-28T00:01:59;3.40;;;1.95;;
30635;SDS011;17400;52.392;9.750;2023-07-28T00:04:27;2.53;;;2.00;;
30635;SDS011;17400;52.392;9.750;2023-07-28T00:06:56;3.33;;;2.17;;
30635;SDS011;17400;52.392;9.750;2023-07-28T00:09:24;5.03;;;2.05;;
30635;SDS011;17400;52.392;9.750;2023-07-28T00:11:55;2.20;;;1.73;;
30635;SDS011;17400;52.392;9.750;2023-07-28T00:14:23;4.18;;;1.90;;
30635;SDS011;17400;52.392;9.750;2023-07-28T00:16:51;2.17;;;1.40;;
30635;SDS011;17400;52.392;9.750;2023-07-28T00:19:19;2.53;;;1.58;;
30635;SDS011;17400;52.392;9.750;2023-07-28T00:21:50;1.67;;;1.27;;
30635;SDS011;17400;52.392;9.750;2023-07-28T00:24:20;2.65;;;1.63;;
30635;SDS011;17400;52.392;9.750;2023-07-28T00:26:48;5.85;;;1.80;;
30635;SDS011;17400;52.392;9.750;2023-07-28T00:29:16;2.47;;;1.58;;
30635;SDS011;17400;52.392;9.750;2023-07-28T00:31:43;1.58;;;1.30;;
30635;SDS011;17400;52.392;9.750;2023-07-28T00:34:11;2.42;;;1.77;;
30635;SDS011;17400;52.392;9.750;2023-07-28T00:36:39;2.00;;;1.30;;
30635;SDS011;17400;52.392;9.750;2023-07-28T00:39:08;2.40;;;1.70;;
30635;SDS011;17400;52.392;9.750;2023-07-28T00:41:37;2.28;;;1.50;;
30635;SDS011;17400;52.392;9.750;2023-07-28T00:44:05;2.75;;;1.17;;
30635;SDS011;17400;52.392;9.750;2023-07-28T00:46:33;2.53;;;1.25;;
30635;SDS011;17400;52.392;9.750;2023-07-28T00:49:02;2.50;;;1.60;;
30635;SDS011;17400;52.392;9.750;2023-07-28T00:51:30;2.70;;;1.40;;
30635;SDS011;17400;52.392;9.750;2023-07-28T00:53:59;2.63;;;1.63;;
30635;SDS011;17400;52.392;9.750;2023-07-28T00:56:31;1.77;;;1.45;;
30635;SDS011;17400;52.392;9.750;2023-07-28T00:59:03;2.03;;;1.20;;
30635;SDS011;17400;52.392;9.750;2023-07-28T01:01:31;2.15;;;1.50;;
30635;SDS011;17400;52.392;9.750;2023-07-28T01:03:59;2.38;;;1.58;;
30635;SDS011;17400;52.392;9.750;2023-07-28T01:06:30;1.75;;;1.48;;
30635;SDS011;17400;52.392;9.750;2023-07-28T01:09:09;2.67;;;1.83;;
30635;SDS011;17400;52.392;9.750;2023-07-28T01:11:52;2.80;;;2.05;;
30635;SDS011;17400;52.392;9.750;2023-07-28T01:14:22;3.10;;;1.80;;
30635;SDS011;17400;52.392;9.750;2023-07-28T01:16:50;2.47;;;1.65;;
30635;SDS011;17400;52.392;9.750;2023-07-28T01:19:18;2.80;;;1.90;;
30635;SDS011;17400;52.392;9.750;2023-07-28T01:21:53;2.53;;;1.50;;
30635;SDS011;17400;52.392;9.750;2023-07-28T01:24:27;3.42;;;1.45;;
30635;SDS011;17400;52.392;9.750;2023-07-28T01:27:04;1.30;;;0.88;;
30635;SDS011;17400;52.392;9.750;2023-07-28T01:29:33;2.47;;;1.55;;
30635;SDS011;17400;52.392;9.750;2023-07-28T01:32:03;1.90;;;1.23;;
30635;SDS011;17400;52.392;9.750;2023-07-28T01:34:32;2.33;;;1.20;;
30635;SDS011;17400;52.392;9.750;2023-07-28T01:37:00;3.03;;;1.80;;
30635;SDS011;17400;52.392;9.750;2023-07-28T01:39:28;2.03;;;1.48;;
30635;SDS011;17400;52.392;9.750;2023-07-28T01:41:56;2.47;;;1.35;;
30635;SDS011;17400;52.392;9.750;2023-07-28T01:44:26;1.48;;;0.95;;
30635;SDS011;17400;52.392;9.750;2023-07-28T01:46:53;2.22;;;1.30;;
30635;SDS011;17400;52.392;9.750;2023-07-28T01:49:21;2.30;;;1.48;;
30635;SDS011;17400;52.392;9.750;2023-07-28T01:51:49;6.28;;;1.10;;
30635;SDS011;17400;52.392;9.750;2023-07-28T01:54:17;5.53;;;1.30;;
30635;SDS011;17400;52.392;9.750;2023-07-28T01:56:45;2.33;;;1.48;;
30635;SDS011;17400;52.392;9.750;2023-07-28T01:59:13;2.20;;;1.52;;
30635;SDS011;17400;52.392;9.750;2023-07-28T02:01:42;3.78;;;1.23;;
30635;SDS011;17400;52.392;9.750;2023-07-28T02:04:10;2.40;;;1.35;;
30635;SDS011;17400;52.392;9.750;2023-07-28T02:06:38;2.60;;;1.70;;
30635;SDS011;17400;52.392;9.750;2023-07-28T02:09:06;1.45;;;1.02;;
30635;SDS011;17400;52.392;9.750;2023-07-28T02:11:34;3.47;;;1.25;;
30635;SDS011;17400;52.392;9.750;2023-07-28T02:14:02;2.30;;;1.63;;
30635;SDS011;17400;52.392;9.750;2023-07-28T02:16:30;3.20;;;1.58;;
30635;SDS011;17400;52.392;9.750;2023-07-28T02:19:00;2.67;;;1.80;;
30635;SDS011;17400;52.392;9.750;2023-07-28T02:21:28;2.42;;;1.58;;
30635;SDS011;17400;52.392;9.750;2023-07-28T02:23:57;2.20;;;1.45;;
30635;SDS011;17400;52.392;9.750;2023-07-28T02:26:27;2.55;;;1.55;;
30635;SDS011;17400;52.392;9.750;2023-07-28T02:28:55;2.08;;;1.30;;
30635;SDS011;17400;52.392;9.750;2023-07-28T02:31:22;4.30;;;1.75;;
30635;SDS011;17400;52.392;9.750;2023-07-28T02:33:50;1.38;;;1.02;;
30635;SDS011;17400;52.392;9.750;2023-07-28T02:36:20;2.13;;;1.25;;
30635;SDS011;17400;52.392;9.750;2023-07-28T02:38:48;1.98;;;1.10;;
30635;SDS011;17400;52.392;9.750;2023-07-28T02:41:16;2.55;;;1.55;;
30635;SDS011;17400;52.392;9.750;2023-07-28T02:43:43;2.30;;;1.58;;
30635;SDS011;17400;52.392;9.750;2023-07-28T02:46:11;2.42;;;1.70;;
30635;SDS011;17400;52.392;9.750;2023-07-28T02:48:39;1.60;;;1.10;;
30635;SDS011;17400;52.392;9.750;2023-07-28T02:51:07;1.75;;;1.17;;
30635;SDS011;17400;52.392;9.750;2023-07-28T02:53:36;4.78;;;1.88;;
30635;SDS011;17400;52.392;9.750;2023-07-28T02:56:04;2.47;;;1.65;;
30635;SDS011;17400;52.392;9.750;2023-07-28T02:58:32;1.92;;;1.27;;
30635;SDS011;17400;52.392;9.750;2023-07-28T03:01:00;3.30;;;1.65;;
30635;SDS011;17400;52.392;9.750;2023-07-28T03:03:28;3.30;;;1.52;;
30635;SDS011;17400;52.392;9.750;2023-07-28T03:05:56;4.13;;;2.40;;
30635;SDS011;17400;52.392;9.750;2023-07-28T03:08:24;3.55;;;1.67;;
30635;SDS011;17400;52.392;9.750;2023-07-28T03:10:57;3.38;;;1.48;;
30635;SDS011;17400;52.392;9.750;2023-07-28T03:13:25;4.07;;;2.05;;
30635;SDS011;17400;52.392;9.750;2023-07-28T03:15:53;3.05;;;2.05;;
30635;SDS011;17400;52.392;9.750;2023-07-28T03:18:20;2.42;;;1.38;;
30635;SDS011;17400;52.392;9.750;2023-07-28T03:20:49;2.28;;;1.75;;
30635;SDS011;17400;52.392;9.750;2023-07-28T03:23:17;1.75;;;1.30;;
30635;SDS011;17400;52.392;9.750;2023-07-28T03:25:45;2.08;;;1.40;;
30635;SDS011;17400;52.392;9.750;2023-07-28T03:28:14;2.53;;;1.70;;
30635;SDS011;17400;52.392;9.750;2023-07-28T03:30:42;1.88;;;1.33;;
30635;SDS011;17400;52.392;9.750;2023-07-28T03:33:10;3.13;;;1.80;;
30635;SDS011;17400;52.392;9.750;2023-07-28T03:35:38;1.90;;;1.27;;
30635;SDS011;17400;52.392;9.750;2023-07-28T03:38:06;1.98;;;1.10;;
30635;SDS011;17400;52.392;9.750;2023-07-28T03:40:34;2.35;;;1.13;;
30635;SDS011;17400;52.392;9.750;2023-07-28T03:43:02;4.18;;;1.40;;
30635;SDS011;17400;52.392;9.750;2023-07-28T03:45:31;1.80;;;1.00;;
30635;SDS011;17400;52.392;9.750;2023-07-28T03:48:00;3.00;;;1.13;;
30635;SDS011;17400;52.392;9.750;2023-07-28T03:50:28;1.52;;;0.98;;
30635;SDS011;17400;52.392;9.750;2023-07-28T03:52:55;1.70;;;1.10;;
30635;SDS011;17400;52.392;9.750;2023-07-28T03:55:23;1.48;;;1.17;;
30635;SDS011;17400;52.392;9.750;2023-07-28T03:57:51;1.27;;;1.15;;
30635;SDS011;17400;52.392;9.750;2023-07-28T04:00:19;1.42;;;0.93;;
30635;SDS011;17400;52.392;9.750;2023-07-28T04:02:49;2.83;;;1.52;;
30635;SDS011;17400;52.392;9.750;2023-07-28T04:05:17;3.53;;;1.35;;
30635;SDS011;17400;52.392;9.750;2023-07-28T04:07:45;3.88;;;1.52;;
30635;SDS011;17400;52.392;9.750;2023-07-28T04:10:12;1.80;;;1.30;;
30635;SDS011;17400;52.392;9.750;2023-07-28T04:12:40;2.03;;;1.10;;
30635;SDS011;17400;52.392;9.750;2023-07-28T04:15:08;1.70;;;0.90;;
30635;SDS011;17400;52.392;9.750;2023-07-28T04:17:37;1.27;;;0.80;;
30635;SDS011;17400;52.392;9.750;2023-07-28T04:20:07;2.05;;;1.10;;
30635;SDS011;17400;52.392;9.750;2023-07-28T04:22:36;2.25;;;0.98;;
30635;SDS011;17400;52.392;9.750;2023-07-28T04:25:04;1.35;;;0.90;;
30635;SDS011;17400;52.392;9.750;2023-07-28T04:27:33;5.20;;;3.20;;
30635;SDS011;17400;52.392;9.750;2023-07-28T04:30:00;3.22;;;2.17;;
30635;SDS011;17400;52.392;9.750;2023-07-28T04:32:28;2.72;;;1.73;;
30635;SDS011;17400;52.392;9.750;2023-07-28T04:34:56;2.63;;;1.70;;
30635;SDS011;17400;52.392;9.750;2023-07-28T04:37:26;5.35;;;3.50;;
30635;SDS011;17400;52.392;9.750;2023-07-28T04:39:54;3.17;;;2.15;;
30635;SDS011;17400;52.392;9.750;2023-07-28T04:42:22;1.10;;;0.95;;
30635;SDS011;17400;52.392;9.750;2023-07-28T04:44:49;1.55;;;0.80;;
30635;SDS011;17400;52.392;9.750;2023-07-28T04:47:17;1.52;;;0.88;;
30635;SDS011;17400;52.392;9.750;2023-07-28T04:49:45;0.90;;;0.63;;
30635;SDS011;17400;52.392;9.750;2023-07-28T04:52:13;0.80;;;0.80;;
30635;SDS011;17400;52.392;9.750;2023-07-28T04:54:43;2.83;;;0.73;;
30635;SDS011;17400;52.392;9.750;2023-07-28T04:57:11;2.30;;;0.70;;
30635;SDS011;17400;52.392;9.750;2023-07-28T04:59:42;4.53;;;0.90;;
30635;SDS011;17400;52.392;9.750;2023-07-28T05:02:10;1.40;;;1.00;;
30635;SDS011;17400;52.392;9.750;2023-07-28T05:04:38;1.00;;;0.75;;
30635;SDS011;17400;52.392;9.750;2023-07-28T05:07:06;1.17;;;0.98;;
30635;SDS011;17400;52.392;9.750;2023-07-28T05:09:33;1.27;;;0.90;;
30635;SDS011;17400;52.392;9.750;2023-07-28T05:12:03;1.65;;;1.00;;
30635;SDS011;17400;52.392;9.750;2023-07-28T05:14:32;1.70;;;1.00;;
30635;SDS011;17400;52.392;9.750;2023-07-28T05:17:00;2.05;;;1.10;;
30635;SDS011;17400;52.392;9.750;2023-07-28T05:19:27;1.48;;;1.17;;
30635;SDS011;17400;52.392;9.750;2023-07-28T05:21:55;1.65;;;1.23;;
30635;SDS011;17400;52.392;9.750;2023-07-28T05:24:23;1.52;;;1.33;;
30635;SDS011;17400;52.392;9.750;2023-07-28T05:26:51;1.95;;;1.40;;
30635;SDS011;17400;52.392;9.750;2023-07-28T05:29:20;2.05;;;1.30;;
30635;SDS011;17400;52.392;9.750;2023-07-28T05:31:48;1.67;;;1.02;;
30635;SDS011;17400;52.392;9.750;2023-07-28T05:34:16;2.33;;;1.52;;
30635;SDS011;17400;52.392;9.750;2023-07-28T05:36:44;2.35;;;1.40;;
30635;SDS011;17400;52.392;9.750;2023-07-28T05:39:12;2.00;;;1.40;;
30635;SDS011;17400;52.392;9.750;2023-07-28T05:41:39;4.25;;;1.48;;
30635;SDS011;17400;52.392;9.750;2023-07-28T05:44:07;2.83;;;2.03;;
30635;SDS011;17400;52.392;9.750;2023-07-28T05:46:37;2.00;;;1.52;;
30635;SDS011;17400;52.392;9.750;2023-07-28T05:49:05;2.72;;;1.65;;
30635;SDS011;17400;52.392;9.750;2023-07-28T05:51:33;2.65;;;1.85;;
30635;SDS011;17400;52.392;9.750;2023-07-28T05:54:01;2.47;;;1.83;;
30635;SDS011;17400;52.392;9.750;2023-07-28T05:56:29;5.82;;;1.60;;
30635;SDS011;17400;52.392;9.750;2023-07-28T05:58:57;2.67;;;1.70;;
30635;SDS011;17400;52.392;9.750;2023-07-28T06:01:25;2.40;;;1.70;;
30635;SDS011;17400;52.392;9.750;2023-07-28T06:03:55;2.72;;;1.95;;
30635;SDS011;17400;52.392;9.750;2023-07-28T06:06:25;3.35;;;1.70;;
30635;SDS011;17400;52.392;9.750;2023-07-28T06:08:54;2.00;;;1.45;;
30635;SDS011;17400;52.392;9.750;2023-07-28T06:11:22;3.97;;;2.20;;
30635;SDS011;17400;52.392;9.750;2023-07-28T06:13:50;2.60;;;1.65;;
30635;SDS011;17400;52.392;9.750;2023-07-28T06:16:18;4.45;;;1.65;;
30635;SDS011;17400;52.392;9.750;2023-07-28T06:18:46;2.08;;;1.48;;
30635;SDS011;17400;52.392;9.750;2023-07-28T06:21:16;1.83;;;1.40;;
30635;SDS011;17400;52.392;9.750;2023-07-28T06:23:44;2.65;;;1.85;;
30635;SDS011;17400;52.392;9.750;2023-07-28T06:26:12;1.83;;;1.50;;
30635;SDS011;17400;52.392;9.750;2023-07-28T06:28:39;2.25;;;1.55;;
30635;SDS011;17400;52.392;9.750;2023-07-28T06:31:08;2.67;;;1.52;;
30635;SDS011;17400;52.392;9.750;2023-07-28T06:33:37;1.48;;;1.15;;
30635;SDS011;17400;52.392;9.750;2023-07-28T06:36:05;2.70;;;1.63;;
30635;SDS011;17400;52.392;9.750;2023-07-28T06:38:35;2.17;;;1.60;;
30635;SDS011;17400;52.392;9.750;2023-07-28T06:41:03;3.75;;;1.80;;
30635;SDS011;17400;52.392;9.750;2023-07-28T06:43:31;2.35;;;1.63;;
30635;SDS011;17400;52.392;9.750;2023-07-28T06:45:59;2.90;;;2.10;;
30635;SDS011;17400;52.392;9.750;2023-07-28T06:48:26;2.95;;;2.20;;
30635;SDS011;17400;52.392;9.750;2023-07-28T06:50:54;2.67;;;1.83;;
30635;SDS011;17400;52.392;9.750;2023-07-28T06:53:22;3.13;;;2.15;;
30635;SDS011;17400;52.392;9.750;2023-07-28T06:55:51;2.58;;;1.60;;
30635;SDS011;17400;52.392;9.750;2023-07-28T06:58:19;1.92;;;1.40;;
30635;SDS011;17400;52.392;9.750;2023-07-28T07:00:47;4.95;;;1.58;;
30635;SDS011;17400;52.392;9.750;2023-07-28T07:03:15;2.58;;;1.80;;
30635;SDS011;17400;52.392;9.750;2023-07-28T07:05:44;2.40;;;1.55;;
30635;SDS011;17400;52.392;9.750;2023-07-28T07:08:12;2.15;;;1.48;;
30635;SDS011;17400;52.392;9.750;2023-07-28T07:10:39;3.10;;;1.98;;
30635;SDS011;17400;52.392;9.750;2023-07-28T07:13:08;1.75;;;1.30;;
30635;SDS011;17400;52.392;9.750;2023-07-28T07:15:37;2.15;;;1.58;;
30635;SDS011;17400;52.392;9.750;2023-07-28T07:18:06;1.90;;;1.55;;
30635;SDS011;17400;52.392;9.750;2023-07-28T07:20:34;2.78;;;1.80;;
30635;SDS011;17400;52.392;9.750;2023-07-28T07:23:02;2.70;;;1.95;;
30635;SDS011;17400;52.392;9.750;2023-07-28T07:25:30;3.15;;;1.65;;
30635;SDS011;17400;52.392;9.750;2023-07-28T07:27:58;2.63;;;1.80;;
30635;SDS011;17400;52.392;9.750;2023-07-28T07:30:27;2.50;;;1.65;;
30635;SDS011;17400;52.392;9.750;2023-07-28T07:32:55;2.45;;;1.75;;
30635;SDS011;17400;52.392;9.750;2023-07-28T07:35:23;3.15;;;2.00;;
30635;SDS011;17400;52.392;9.750;2023-07-28T07:37:50;2.22;;;1.52;;
30635;SDS011;17400;52.392;9.750;2023-07-28T07:40:18;2.45;;;1.63;;
30635;SDS011;17400;52.392;9.750;2023-07-28T07:42:47;3.03;;;1.95;;
30635;SDS011;17400;52.392;9.750;2023-07-28T07:45:15;2.83;;;1.85;;
30635;SDS011;17400;52.392;9.750;2023-07-28T07:47:45;2.40;;;1.80;;
30635;SDS011;17400;52.392;9.750;2023-07-28T07:50:12;3.55;;;2.35;;
30635;SDS011;17400;52.392;9.750;2023-07-28T07:52:41;3.28;;;2.17;;
30635;SDS011;17400;52.392;9.750;2023-07-28T07:55:09;3.88;;;2.53;;
30635;SDS011;17400;52.392;9.750;2023-07-28T07:57:38;3.40;;;2.38;;
30635;SDS011;17400;52.392;9.750;2023-07-28T08:00:07;3.35;;;2.05;;
30635;SDS011;17400;52.392;9.750;2023-07-28T08:02:35;4.15;;;2.45;;
30635;SDS011;17400;52.392;9.750;2023-07-28T08:05:05;5.68;;;2.13;;
30635;SDS011;17400;52.392;9.750;2023-07-28T08:07:34;5.05;;;1.92;;
30635;SDS011;17400;52.392;9.750;2023-07-28T08:10:02;2.25;;;1.83;;
30635;SDS011;17400;52.392;9.750;2023-07-28T08:12:30;3.08;;;2.10;;
30635;SDS011;17400;52.392;9.750;2023-07-28T08:14:58;5.82;;;3.13;;
30635;SDS011;17400;52.392;9.750;2023-07-28T08:17:26;3.35;;;2.33;;
30635;SDS011;17400;52.392;9.750;2023-07-28T08:19:54;2.83;;;1.90;;
30635;SDS011;17400;52.392;9.750;2023-07-28T08:22:23;2.85;;;1.98;;
30635;SDS011;17400;52.392;9.750;2023-07-28T08:24:51;3.65;;;1.65;;
30635;SDS011;17400;52.392;9.750;2023-07-28T08:27:19;3.55;;;2.38;;
30635;SDS011;17400;52.392;9.750;2023-07-28T08:29:47;2.83;;;1.85;;
30635;SDS011;17400;52.392;9.750;2023-07-28T08:32:15;3.83;;;2.05;;
30635;SDS011;17400;52.392;9.750;2023-07-28T08:34:43;3.15;;;1.75;;
30635;SDS011;17400;52.392;9.750;2023-07-28T08:37:12;2.38;;;1.80;;
30635;SDS011;17400;52.392;9.750;2023-07-28T08:39:41;3.20;;;2.30;;
30635;SDS011;17400;52.392;9.750;2023-07-28T08:42:09;3.95;;;1.63;;
30635;SDS011;17400;52.392;9.750;2023-07-28T08:44:37;2.95;;;1.80;;
30635;SDS011;17400;52.392;9.750;2023-07-28T08:47:05;3.15;;;2.00;;
30635;SDS011;17400;52.392;9.750;2023-07-28T08:49:33;2.40;;;1.63;;
30635;SDS011;17400;52.392;9.750;2023-07-28T08:52:03;1.80;;;1.27;;
30635;SDS011;17400;52.392;9.750;2023-07-28T08:54:31;1.88;;;1.50;;
30635;SDS011;17400;52.392;9.750;2023-07-28T08:57:00;2.47;;;1.80;;
30635;SDS011;17400;52.392;9.750;2023-07-28T08:59:29;3.05;;;2.00;;
30635;SDS011;17400;52.392;9.750;2023-07-28T09:01:57;2.30;;;1.70;;
30635;SDS011;17400;52.392;9.750;2023-07-28T09:04:26;2.75;;;1.75;;
30635;SDS011;17400;52.392;9.750;2023-07-28T09:06:54;2.85;;;1.90;;
30635;SDS011;17400;52.392;9.750;2023-07-28T09:09:22;2.45;;;1.88;;
30635;SDS011;17400;52.392;9.750;2023-07-28T09:11:51;2.58;;;2.10;;
30635;SDS011;17400;52.392;9.750;2023-07-28T09:14:21;2.47;;;1.83;;
30635;SDS011;17400;52.392;9.750;2023-07-28T09:16:51;2.78;;;1.92;;
30635;SDS011;17400;52.392;9.750;2023-07-28T09:19:21;2.88;;;2.03;;
30635;SDS011;17400;52.392;9.750;2023-07-28T09:21:56;3.63;;;2.05;;
30635;SDS011;17400;52.392;9.750;2023-07-28T09:24:29;3.15;;;2.15;;
30635;SDS011;17400;52.392;9.750;2023-07-28T09:26:59;2.28;;;1.58;;
30635;SDS011;17400;52.392;9.750;2023-07-28T09:29:29;2.13;;;1.88;;
30635;SDS011;17400;52.392;9.750;2023-07-28T09:32:02;2.25;;;1.67;;
30635;SDS011;17400;52.392;9.750;2023-07-28T09:34:31;2.80;;;2.13;;
30635;SDS011;17400;52.392;9.750;2023-07-28T09:37:00;2.33;;;1.83;;
30635;SDS011;17400;52.392;9.750;2023-07-28T09:39:28;4.40;;;2.20;;
30635;SDS011;17400;52.392;9.750;2023-07-28T09:41:56;3.75;;;1.90;;
30635;SDS011;17400;52.392;9.750;2023-07-28T09:44:26;3.30;;;2.30;;
30635;SDS011;17400;52.392;9.750;2023-07-28T09:46:55;3.15;;;2.22;;
30635;SDS011;17400;52.392;9.750;2023-07-28T09:49:27;4.43;;;3.08;;
30635;SDS011;17400;52.392;9.750;2023-07-28T09:51:57;2.60;;;1.83;;
30635;SDS011;17400;52.392;9.750;2023-07-28T09:54:30;2.95;;;2.15;;
30635;SDS011;17400;52.392;9.750;2023-07-28T09:57:02;3.38;;;2.30;;
30635;SDS011;17400;52.392;9.750;2023-07-28T09:59:32;2.67;;;2.00;;
30635;SDS011;17400;52.392;9.750;2023-07-28T10:02:06;3.67;;;2.20;;
30635;SDS011;17400;52.392;9.750;2023-07-28T10:04:36;3.00;;;2.28;;
30635;SDS011;17400;52.392;9.750;2023-07-28T10:07:05;3.75;;;2.20;;
30635;SDS011;17400;52.392;9.750;2023-07-28T10:09:34;2.60;;;2.00;;
30635;SDS011;17400;52.392;9.750;2023-07-28T10:12:03;2.70;;;2.00;;
30635;SDS011;17400;52.392;9.750;2023-07-28T10:14:34;3.63;;;2.72;;
30635;SDS011;17400;52.392;9.750;2023-07-28T10:17:04;3.75;;;1.85;;
30635;SDS011;17400;52.392;9.750;2023-07-28T10:19:42;2.45;;;1.83;;
30635;SDS011;17400;52.392;9.750;2023-07-28T10:22:11;3.20;;;2.13;;
30635;SDS011;17400;52.392;9.750;2023-07-28T10:24:52;3.42;;;2.00;;
30635;SDS011;17400;52.392;9.750;2023-07-28T10:27:28;2.80;;;2.20;;
30635;SDS011;17400;52.392;9.750;2023-07-28T10:29:58;3.60;;;2.05;;
30635;SDS011;17400;52.392;9.750;2023-07-28T10:32:28;4.72;;;1.88;;
30635;SDS011;17400;52.392;9.750;2023-07-28T10:34:59;2.47;;;1.85;;
30635;SDS011;17400;52.392;9.750;2023-07-28T10:37:30;3.38;;;1.85;;
30635;SDS011;17400;52.392;9.750;2023-07-28T10:42:56;2.47;;;1.63;;
30635;SDS011;17400;52.392;9.750;2023-07-28T10:45:26;2.65;;;1.60;;
30635;SDS011;17400;52.392;9.750;2023-07-28T10:47:56;6.50;;;2.00;;
30635;SDS011;17400;52.392;9.750;2023-07-28T10:50:28;2.80;;;1.73;;
30635;SDS011;17400;52.392;9.750;2023-07-28T10:52:57;2.85;;;1.52;;
30635;SDS011;17400;52.392;9.750;2023-07-28T10:55:26;6.57;;;2.67;;
30635;SDS011;17400;52.392;9.750;2023-07-28T10:57:55;2.55;;;1.77;;
30635;SDS011;17400;52.392;9.750;2023-07-28T11:00:24;3.50;;;2.10;;
30635;SDS011;17400;52.392;9.750;2023-07-28T11:02:52;2.35;;;1.77;;
30635;SDS011;17400;52.392;9.750;2023-07-28T11:05:24;4.20;;;2.03;;
30635;SDS011;17400;52.392;9.750;2023-07-28T11:07:53;2.83;;;1.80;;
30635;SDS011;17400;52.392;9.750;2023-07-28T11:10:22;2.20;;;1.73;;
30635;SDS011;17400;52.392;9.750;2023-07-28T11:12:51;2.97;;;2.13;;
30635;SDS011;17400;52.392;9.750;2023-07-28T11:15:20;2.88;;;1.92;;
30635;SDS011;17400;52.392;9.750;2023-07-28T11:17:49;4.63;;;1.90;;
30635;SDS011;17400;52.392;9.750;2023-07-28T11:20:18;3.17;;;1.88;;
30635;SDS011;17400;52.392;9.750;2023-07-28T11:22:53;2.50;;;1.70;;
30635;SDS011;17400;52.392;9.750;2023-07-28T11:25:23;3.75;;;2.00;;
30635;SDS011;17400;52.392;9.750;2023-07-28T11:27:51;2.00;;;1.35;;
30635;SDS011;17400;52.392;9.750;2023-07-28T11:30:19;3.63;;;2.00;;
30635;SDS011;17400;52.392;9.750;2023-07-28T11:32:49;2.17;;;1.83;;
30635;SDS011;17400;52.392;9.750;2023-07-28T11:35:19;2.90;;;1.60;;
30635;SDS011;17400;52.392;9.750;2023-07-28T11:37:49;2.00;;;1.50;;
30635;SDS011;17400;52.392;9.750;2023-07-28T11:40:19;3.70;;;2.20;;
30635;SDS011;17400;52.392;9.750;2023-07-28T11:42:49;2.38;;;1.92;;
30635;SDS011;17400;52.392;9.750;2023-07-28T11:45:19;4.25;;;3.03;;
30635;SDS011;17400;52.392;9.750;2023-07-28T11:47:55;3.15;;;2.45;;
30635;SDS011;17400;52.392;9.750;2023-07-28T11:50:24;3.55;;;2.05;;
30635;SDS011;17400;52.392;9.750;2023-07-28T11:52:53;1.92;;;1.40;;
30635;SDS011;17400;52.392;9.750;2023-07-28T11:55:24;2.38;;;1.85;;
30635;SDS011;17400;52.392;9.750;2023-07-28T11:57:52;2.83;;;1.73;;
30635;SDS011;17400;52.392;9.750;2023-07-28T12:00:24;3.17;;;1.88;;
30635;SDS011;17400;52.392;9.750;2023-07-28T12:03:01;3.80;;;2.10;;
30635;SDS011;17400;52.392;9.750;2023-07-28T12:05:31;3.30;;;2.25;;
30635;SDS011;17400;52.392;9.750;2023-07-28T12:08:01;2.50;;;2.10;;
30635;SDS011;17400;52.392;9.750;2023-07-28T12:10:31;3.97;;;2.13;;
30635;SDS011;17400;52.392;9.750;2023-07-28T12:13:06;2.58;;;2.05;;
30635;SDS011;17400;52.392;9.750;2023-07-28T12:15:40;2.65;;;2.33;;
30635;SDS011;17400;52.392;9.750;2023-07-28T12:18:12;4.53;;;2.40;;
30635;SDS011;17400;52.392;9.750;2023-07-28T12:20:44;3.83;;;2.42;;
30635;SDS011;17400;52.392;9.750;2023-07-28T12:23:15;2.45;;;1.75;;
30635;SDS011;17400;52.392;9.750;2023-07-28T12:25:48;2.33;;;1.90;;
30635;SDS011;17400;52.392;9.750;2023-07-28T12:28:17;2.58;;;1.95;;
30635;SDS011;17400;52.392;9.750;2023-07-28T12:30:46;3.78;;;2.30;;
30635;SDS011;17400;52.392;9.750;2023-07-28T12:33:18;2.20;;;1.58;;
30635;SDS011;17400;52.392;9.750;2023-07-28T12:35:48;4.35;;;2.03;;
30635;SDS011;17400;52.392;9.750;2023-07-28T12:38:17;3.33;;;2.38;;
30635;SDS011;17400;52.392;9.750;2023-07-28T12:40:49;3.95;;;1.85;;
30635;SDS011;17400;52.392;9.750;2023-07-28T12:43:21;3.65;;;2.00;;
30635;SDS011;17400;52.392;9.750;2023-07-28T12:45:53;2.67;;;2.13;;
30635;SDS011;17400;52.392;9.750;2023-07-28T12:48:24;3.08;;;2.03;;
30635;SDS011;17400;52.392;9.750;2023-07-28T12:50:52;2.28;;;1.88;;
30635;SDS011;17400;52.392;9.750;2023-07-28T12:53:23;2.63;;;1.98;;
30635;SDS011;17400;52.392;9.750;2023-07-28T12:55:52;2.22;;;1.80;;
30635;SDS011;17400;52.392;9.750;2023-07-28T12:58:24;2.60;;;1.73;;
30635;SDS011;17400;52.392;9.750;2023-07-28T13:00:55;2.60;;;2.05;;
30635;SDS011;17400;52.392;9.750;2023-07-28T13:03:27;3.22;;;1.90;;
30635;SDS011;17400;52.392;9.750;2023-07-28T13:05:55;3.20;;;2.38;;
30635;SDS011;17400;52.392;9.750;2023-07-28T13:08:23;3.00;;;1.92;;
30635;SDS011;17400;52.392;9.750;2023-07-28T13:10:55;2.78;;;1.98;;
30635;SDS011;17400;52.392;9.750;2023-07-28T13:13:25;3.20;;;2.13;;
30635;SDS011;17400;52.392;9.750;2023-07-28T13:15:55;2.53;;;2.13;;
30635;SDS011;17400;52.392;9.750;2023-07-28T13:18:23;3.55;;;2.55;;
30635;SDS011;17400;52.392;9.750;2023-07-28T13:20:51;4.07;;;2.17;;
30635;SDS011;17400;52.392;9.750;2023-07-28T13:23:20;3.03;;;2.20;;
30635;SDS011;17400;52.392;9.750;2023-07-28T13:25:48;2.72;;;2.13;;
30635;SDS011;17400;52.392;9.750;2023-07-28T13:28:18;3.05;;;2.25;;
30635;SDS011;17400;52.392;9.750;2023-07-28T13:30:46;4.28;;;2.63;;
30635;SDS011;17400;52.392;9.750;2023-07-28T13:33:14;4.32;;;2.63;;
30635;SDS011;17400;52.392;9.750;2023-07-28T13:35:43;3.13;;;1.90;;
30635;SDS011;17400;52.392;9.750;2023-07-28T13:38:11;3.55;;;2.38;;
30635;SDS011;17400;52.392;9.750;2023-07-28T13:40:39;4.72;;;2.33;;
30635;SDS011;17400;52.392;9.750;2023-07-28T13:43:07;3.55;;;2.55;;
30635;SDS011;17400;52.392;9.750;2023-07-28T13:45:44;2.42;;;1.83;;
30635;SDS011;17400;52.392;9.750;2023-07-28T13:48:12;3.10;;;2.28;;
30635;SDS011;17400;52.392;9.750;2023-07-28T13:50:43;3.78;;;2.47;;
30635;SDS011;17400;52.392;9.750;2023-07-28T13:53:21;3.33;;;2.10;;
30635;SDS011;17400;52.392;9.750;2023-07-28T13:55:52;2.70;;;2.15;;
30635;SDS011;17400;52.392;9.750;2023-07-28T13:58:24;3.60;;;2.42;;
30635;SDS011;17400;52.392;9.750;2023-07-28T14:00:53;3.30;;;2.55;;
30635;SDS011;17400;52.392;9.750;2023-07-28T14:03:21;2.63;;;1.95;;
30635;SDS011;17400;52.392;9.750;2023-07-28T14:05:50;5.10;;;2.47;;
30635;SDS011;17400;52.392;9.750;2023-07-28T14:08:18;2.72;;;1.85;;
30635;SDS011;17400;52.392;9.750;2023-07-28T14:10:46;2.70;;;2.22;;
30635;SDS011;17400;52.392;9.750;2023-07-28T14:13:14;2.97;;;2.17;;
30635;SDS011;17400;52.392;9.750;2023-07-28T14:15:42;2.83;;;1.95;;
30635;SDS011;17400;52.392;9.750;2023-07-28T14:18:12;3.38;;;2.50;;
30635;SDS011;17400;52.392;9.750;2023-07-28T14:20:40;3.00;;;2.08;;
30635;SDS011;17400;52.392;9.750;2023-07-28T14:23:20;3.53;;;2.13;;
30635;SDS011;17400;52.392;9.750;2023-07-28T14:25:49;4.80;;;2.97;;
30635;SDS011;17400;52.392;9.750;2023-07-28T14:28:17;3.85;;;2.17;;
30635;SDS011;17400;52.392;9.750;2023-07-28T14:30:46;3.17;;;2.15;;
30635;SDS011;17400;52.392;9.750;2023-07-28T14:33:16;3.97;;;2.70;;
30635;SDS011;17400;52.392;9.750;2023-07-28T14:35:45;4.43;;;2.88;;
30635;SDS011;17400;52.392;9.750;2023-07-28T14:38:16;3.28;;;2.70;;
30635;SDS011;17400;52.392;9.750;2023-07-28T14:40:45;4.28;;;2.17;;
30635;SDS011;17400;52.392;9.750;2023-07-28T14:43:16;2.83;;;2.05;;
30635;SDS011;17400;52.392;9.750;2023-07-28T14:45:44;3.15;;;2.00;;
30635;SDS011;17400;52.392;9.750;2023-07-28T14:48:13;4.38;;;2.15;;
30635;SDS011;17400;52.392;9.750;2023-07-28T14:50:42;2.17;;;1.95;;
30635;SDS011;17400;52.392;9.750;2023-07-28T14:53:30;2.38;;;2.00;;
30635;SDS011;17400;52.392;9.750;2023-07-28T14:56:00;3.15;;;2.10;;
30635;SDS011;17400;52.392;9.750;2023-07-28T14:58:30;4.20;;;2.58;;
30635;SDS011;17400;52.392;9.750;2023-07-28T15:00:58;3.55;;;2.42;;
30635;SDS011;17400;52.392;9.750;2023-07-28T15:03:28;6.90;;;2.60;;